Terminal Aerodrome Forecast
Issued by NWS

Home | Current Version | Previous Version | Text Only | Print | Product List | Glossary On
Versions: 1 2 3 4 5 6 7 8 9 10 11 12 13 14 15 16 17 18 19 20
000
FTUS43 KGRB 191518 AAA
TAFATW
TAF AMD
KATW 191518Z 1915/2012 28008KT P6SM BKN015 BKN080
     FM191600 28011G18KT P6SM VCSH SCT030 BKN070
      TEMPO 1918/1922 5SM TSRA BKN035CB
     FM200100 28007KT P6SM SCT100
      TEMPO 2008/2012 BKN100=

USA.gov is the U.S. government's official web portal to all federal, state and local government web resources and services.